createdAt,value
2023-06-09T00:00:00.241Z,116943.30
2023-06-09T00:01:03.430Z,116943.30
2023-06-09T00:02:06.322Z,116943.30
2023-06-09T00:03:09.546Z,116943.30
2023-06-09T00:04:12.628Z,116943.30
2023-06-09T00:05:15.341Z,116943.30
2023-06-09T00:06:18.310Z,116943.30
2023-06-09T00:07:21.544Z,116943.30
2023-06-09T00:08:24.683Z,116943.30
2023-06-09T00:09:27.873Z,116943.30
2023-06-09T00:10:31.247Z,116943.30
2023-06-09T00:11:34.853Z,116943.30
2023-06-09T00:12:38.036Z,116943.30
2023-06-09T00:13:41.222Z,116943.30
2023-06-09T00:14:44.341Z,116943.30
2023-06-09T00:15:47.358Z,116943.30
2023-06-09T00:16:50.806Z,116943.30
2023-06-09T00:17:54.161Z,116943.30
2023-06-09T00:18:57.825Z,116943.30
2023-06-09T00:20:01.113Z,116943.30
2023-06-09T00:21:04.304Z,116943.30
2023-06-09T00:22:07.781Z,116943.30
2023-06-09T00:23:11.179Z,116943.30
2023-06-09T00:24:14.559Z,116943.30
2023-06-09T00:25:17.748Z,116943.30
2023-06-09T00:26:20.924Z,116943.30
2023-06-09T00:27:24.199Z,116943.30
2023-06-09T00:28:27.392Z,116943.30
2023-06-09T00:29:30.693Z,116943.30
2023-06-09T00:30:38.682Z,116943.30
2023-06-09T00:31:38.186Z,116943.30
2023-06-09T00:32:41.272Z,116943.30
2023-06-09T00:33:44.020Z,116943.30
2023-06-09T00:34:47.095Z,116943.30
2023-06-09T00:35:50.066Z,116943.30
2023-06-09T00:36:52.952Z,116943.30
2023-06-09T00:37:56.041Z,116943.30
2023-06-09T00:38:58.789Z,116943.30
2023-06-09T00:40:01.681Z,116943.30
2023-06-09T00:41:04.336Z,116681.65
2023-06-09T00:42:07.211Z,116811.96
2023-06-09T00:43:10.493Z,116943.30
2023-06-09T00:44:13.784Z,116942.28
2023-06-09T00:45:17.073Z,116811.96
2023-06-09T00:46:20.286Z,116942.28
2023-06-09T00:47:23.459Z,115639.32
2023-06-09T00:48:26.506Z,115118.26
2023-06-09T00:49:29.692Z,115509.05
2023-06-09T00:50:33.193Z,115248.52
2023-06-09T00:51:36.267Z,114857.75
2023-06-09T00:52:39.338Z,114206.55
2023-06-09T00:53:42.515Z,114336.78
2023-06-09T00:54:45.602Z,114857.75
2023-06-09T00:55:48.572Z,115118.26
2023-06-09T00:56:51.857Z,114988.00
2023-06-09T00:57:55.245Z,115118.26
2023-06-09T00:58:58.321Z,114336.78
2023-06-09T01:00:01.567Z,114597.26
2023-06-09T01:01:04.605Z,114467.02
2023-06-09T01:02:07.673Z,114467.02
2023-06-09T01:03:10.919Z,115118.26
2023-06-09T01:04:13.620Z,114988.00
2023-06-09T01:05:17.129Z,115378.78
2023-06-09T01:06:20.716Z,115248.52
2023-06-09T01:07:23.699Z,114988.00
2023-06-09T01:08:26.558Z,115248.52
2023-06-09T01:09:29.738Z,115378.78
2023-06-09T01:10:32.944Z,115769.59
2023-06-09T01:11:36.407Z,115639.32
2023-06-09T01:12:39.589Z,115769.59
2023-06-09T01:13:42.671Z,115639.32
2023-06-09T01:14:45.744Z,115769.59
2023-06-09T01:15:48.934Z,116030.16
2023-06-09T01:16:52.559Z,116030.16
2023-06-09T01:17:55.930Z,115639.32
2023-06-09T01:18:58.986Z,116030.16
2023-06-09T01:20:02.075Z,115248.52
2023-06-09T01:21:05.346Z,115248.52
2023-06-09T01:22:08.529Z,115639.32
2023-06-09T01:23:11.711Z,115899.87
2023-06-09T01:24:15.038Z,116030.16
2023-06-09T01:25:18.281Z,115248.52
2023-06-09T01:26:21.568Z,114988.00
2023-06-09T01:27:24.748Z,113946.10
2023-06-09T01:28:27.947Z,115378.78
2023-06-09T01:29:31.528Z,115378.78
2023-06-09T01:30:34.396Z,115118.26
2023-06-09T01:31:37.425Z,114988.00
2023-06-09T01:32:40.598Z,115118.26
2023-06-09T01:33:43.426Z,115118.26
2023-06-09T01:34:46.202Z,114857.75
2023-06-09T01:35:48.977Z,115118.26
2023-06-09T01:36:51.663Z,114988.00
2023-06-09T01:37:54.617Z,115509.05
2023-06-09T01:38:57.105Z,115248.52
2023-06-09T01:40:00.272Z,114857.75
2023-06-09T01:41:03.240Z,114467.02
2023-06-09T01:42:06.731Z,114076.33
2023-06-09T01:43:09.613Z,114988.00
2023-06-09T01:44:12.592Z,114597.26
2023-06-09T01:45:15.663Z,114727.50
2023-06-09T01:46:18.951Z,114727.50
2023-06-09T01:47:22.225Z,114467.02
2023-06-09T01:48:25.414Z,114076.33
2023-06-09T01:49:28.181Z,113815.89
2023-06-09T01:50:31.261Z,114076.33
2023-06-09T01:51:34.463Z,114727.50
2023-06-09T01:52:37.630Z,114076.33
2023-06-09T01:53:41.538Z,113946.10
2023-06-09T01:54:44.989Z,114076.33
2023-06-09T01:55:48.019Z,113685.67
2023-06-09T01:56:51.173Z,113555.46
2023-06-09T01:57:54.258Z,112774.28
2023-06-09T01:58:57.539Z,111993.27
2023-06-09T02:00:00.551Z,111342.52
2023-06-09T02:01:03.696Z,112123.42
2023-06-09T02:02:06.665Z,111472.66
2023-06-09T02:03:09.940Z,111082.26
2023-06-09T02:04:13.376Z,111342.52
2023-06-09T02:05:16.419Z,110301.56
2023-06-09T02:06:19.546Z,110301.56
2023-06-09T02:07:23.011Z,109781.17
2023-06-09T02:08:26.076Z,109781.17
2023-06-09T02:09:29.260Z,111082.26
2023-06-09T02:10:32.411Z,110691.89
2023-06-09T02:11:35.409Z,109260.86
2023-06-09T02:12:38.594Z,109390.93
2023-06-09T02:13:41.777Z,109651.09
2023-06-09T02:14:45.062Z,109521.00
2023-06-09T02:15:48.307Z,109000.72
2023-06-09T02:16:51.628Z,109911.27
2023-06-09T02:17:54.814Z,109000.72
2023-06-09T02:18:57.600Z,109130.78
2023-06-09T02:20:01.272Z,109260.86
2023-06-09T02:21:04.395Z,108740.61
2023-06-09T02:22:07.426Z,109260.86
2023-06-09T02:23:10.409Z,109260.86
2023-06-09T02:24:14.409Z,108610.55
2023-06-09T02:25:17.820Z,108870.66
2023-06-09T02:26:20.571Z,109130.78
2023-06-09T02:27:23.347Z,108350.46
2023-06-09T02:28:26.328Z,108220.42
2023-06-09T02:29:29.094Z,108740.61
2023-06-09T02:30:32.493Z,110041.36
2023-06-09T02:31:35.397Z,110431.66
2023-06-09T02:32:38.307Z,110171.45
2023-06-09T02:33:41.009Z,111602.80
2023-06-09T02:34:43.885Z,110171.45
2023-06-09T02:35:46.968Z,110041.36
2023-06-09T02:36:49.831Z,109781.17
2023-06-09T02:37:52.516Z,111082.26
2023-06-09T02:38:55.488Z,111863.11
2023-06-09T02:39:58.253Z,109521.00
2023-06-09T02:41:01.222Z,109000.72
2023-06-09T02:42:04.021Z,109390.93
2023-06-09T02:43:06.881Z,110301.56
2023-06-09T02:44:09.544Z,110171.45
2023-06-09T02:45:12.623Z,109390.93
2023-06-09T02:46:15.844Z,109521.00
2023-06-09T02:47:18.577Z,109390.93
2023-06-09T02:48:21.360Z,109911.27
2023-06-09T02:49:24.022Z,109260.86
2023-06-09T02:50:26.894Z,109130.78
2023-06-09T02:51:29.882Z,109521.00
2023-06-09T02:52:32.728Z,110691.89
2023-06-09T02:53:35.623Z,110301.56
2023-06-09T02:54:38.464Z,110171.45
2023-06-09T02:55:41.578Z,109390.93
2023-06-09T02:56:44.760Z,108870.66
2023-06-09T02:57:47.748Z,109390.93
2023-06-09T02:58:50.812Z,109781.17
2023-06-09T02:59:53.691Z,109651.09
2023-06-09T03:00:56.797Z,109651.09
2023-06-09T03:02:00.259Z,109521.00
2023-06-09T03:03:03.339Z,107700.30
2023-06-09T03:04:06.407Z,107440.27
2023-06-09T03:05:09.545Z,107700.30
2023-06-09T03:06:12.790Z,107700.30
2023-06-09T03:07:15.972Z,107180.25
2023-06-09T03:08:19.075Z,107440.27
2023-06-09T03:09:22.117Z,105490.55
2023-06-09T03:10:25.212Z,106920.25
2023-06-09T03:11:28.079Z,106140.34
2023-06-09T03:12:31.262Z,107050.25
2023-06-09T03:13:34.252Z,107310.25
2023-06-09T03:14:37.529Z,106660.27
2023-06-09T03:15:40.910Z,106010.38
2023-06-09T03:16:44.100Z,106400.30
2023-06-09T03:17:47.433Z,107700.30
2023-06-09T03:18:50.144Z,107310.25
2023-06-09T03:19:52.922Z,106660.27
2023-06-09T03:20:55.688Z,108220.42
2023-06-09T03:21:58.477Z,108480.50
2023-06-09T03:23:01.336Z,108350.46
2023-06-09T03:24:04.244Z,108350.46
2023-06-09T03:25:06.973Z,107570.28
2023-06-09T03:26:09.959Z,107570.28
2023-06-09T03:27:13.035Z,107830.33
2023-06-09T03:28:16.116Z,105490.55
2023-06-09T03:29:19.301Z,106270.32
2023-06-09T03:30:22.408Z,106140.34
2023-06-09T03:31:25.408Z,106010.38
2023-06-09T03:32:28.980Z,102762.50
2023-06-09T03:33:31.919Z,102762.50
2023-06-09T03:34:35.004Z,102892.36
2023-06-09T03:35:37.876Z,101983.39
2023-06-09T03:36:41.189Z,101723.73
2023-06-09T03:37:44.240Z,101853.55
2023-06-09T03:38:47.727Z,101853.55
2023-06-09T03:39:50.909Z,101334.25
2023-06-09T03:40:53.998Z,100944.82
2023-06-09T03:41:57.082Z,99906.52
2023-06-09T03:43:00.155Z,96922.86
2023-06-09T03:44:02.733Z,98609.00
2023-06-09T03:45:05.489Z,98479.27
2023-06-09T03:46:09.829Z,95427.81
2023-06-09T03:47:12.889Z,98738.73
2023-06-09T03:48:16.479Z,96793.19
2023-06-09T03:49:20.265Z,96793.19
2023-06-09T03:50:23.651Z,94224.88
2023-06-09T03:51:26.828Z,96793.19
2023-06-09T03:52:29.913Z,98998.21
2023-06-09T03:53:33.096Z,98868.47
2023-06-09T03:54:36.285Z,100685.22
2023-06-09T03:55:39.251Z,94826.30
2023-06-09T03:56:42.232Z,96655.41
2023-06-09T03:57:45.205Z,93913.06
2023-06-09T03:58:48.294Z,92550.67
2023-06-09T03:59:51.374Z,89749.42
2023-06-09T04:00:54.443Z,94411.16
2023-06-09T04:01:57.671Z,94013.28
2023-06-09T04:03:01.033Z,96793.19
2023-06-09T04:04:04.158Z,92730.81
2023-06-09T04:05:07.798Z,98609.00
2023-06-09T04:06:10.878Z,95036.91
2023-06-09T04:07:13.949Z,95113.88
2023-06-09T04:08:17.041Z,94303.84
2023-06-09T04:09:20.013Z,97441.59
2023-06-09T04:10:23.195Z,93264.20
2023-06-09T04:11:26.169Z,91437.62
2023-06-09T04:12:29.238Z,93337.08
2023-06-09T04:13:32.031Z,89659.41
2023-06-09T04:14:34.914Z,91767.47
2023-06-09T04:15:37.663Z,90011.36
2023-06-09T04:16:40.581Z,83151.05
2023-06-09T04:17:43.350Z,81553.10
2023-06-09T04:18:46.295Z,71893.19
2023-06-09T04:19:49.075Z,70920.73
2023-06-09T04:20:54.021Z,68815.55
2023-06-09T04:21:56.755Z,70430.56
2023-06-09T04:22:59.437Z,74596.38
2023-06-09T04:24:02.259Z,69409.16
2023-06-09T04:25:05.001Z,73827.74
2023-06-09T04:26:08.457Z,78521.48
2023-06-09T04:27:11.747Z,69273.33
2023-06-09T04:28:14.723Z,73049.17
2023-06-09T04:29:18.023Z,71130.10
2023-06-09T04:30:21.082Z,66874.38
2023-06-09T04:31:24.306Z,65109.03
2023-06-09T04:32:27.383Z,70986.16
2023-06-09T04:33:30.440Z,77735.95
2023-06-09T04:34:33.419Z,79584.55
2023-06-09T04:35:36.601Z,77940.64
2023-06-09T04:36:39.869Z,72529.55
2023-06-09T04:37:42.862Z,70750.63
2023-06-09T04:38:45.931Z,66423.92
2023-06-09T04:39:48.939Z,63993.52
2023-06-09T04:40:51.778Z,59249.59
2023-06-09T04:41:54.875Z,60430.02
2023-06-09T04:42:57.732Z,62729.66
2023-06-09T04:44:01.226Z,63552.43
2023-06-09T04:45:04.216Z,60650.89
2023-06-09T04:46:07.292Z,64622.59
2023-06-09T04:47:10.456Z,61504.36
2023-06-09T04:48:13.662Z,59977.28
2023-06-09T04:49:16.633Z,62189.28
2023-06-09T04:50:19.801Z,59570.76
2023-06-09T04:51:22.773Z,56959.99
2023-06-09T04:52:26.058Z,65957.42
2023-06-09T04:53:29.039Z,68513.75
2023-06-09T04:54:32.018Z,74198.45
2023-06-09T04:55:34.997Z,70999.24
2023-06-09T04:56:38.076Z,68240.14
2023-06-09T04:57:41.560Z,69387.02
2023-06-09T04:58:44.544Z,69227.04
2023-06-09T04:59:47.629Z,65131.14
2023-06-09T05:00:50.831Z,62367.05
2023-06-09T05:01:54.156Z,64790.43
2023-06-09T05:02:57.312Z,70891.55
2023-06-09T05:04:00.239Z,72191.22
2023-06-09T05:05:03.350Z,74544.00
2023-06-09T05:06:06.524Z,69318.60
2023-06-09T05:07:09.475Z,68441.33
2023-06-09T05:08:12.473Z,66612.94
2023-06-09T05:09:15.335Z,64707.01
2023-06-09T05:10:18.309Z,63784.53
2023-06-09T05:11:20.981Z,68211.98
2023-06-09T05:12:23.658Z,66450.06
2023-06-09T05:13:26.416Z,67548.15
2023-06-09T05:14:32.836Z,66232.89
2023-06-09T05:15:33.405Z,67547.14
2023-06-09T05:16:36.384Z,68363.87
2023-06-09T05:17:39.294Z,69718.06
2023-06-09T05:18:42.121Z,69761.34
2023-06-09T05:19:46.707Z,73448.01
2023-06-09T05:20:49.209Z,69190.82
2023-06-09T05:21:51.971Z,69826.75
2023-06-09T05:22:54.761Z,68940.30
2023-06-09T05:23:57.668Z,66080.08
2023-06-09T05:25:00.398Z,69931.40
2023-06-09T05:26:03.064Z,71977.77
2023-06-09T05:27:05.846Z,74632.66
2023-06-09T05:28:08.816Z,71217.68
2023-06-09T05:29:11.594Z,78051.55
2023-06-09T05:30:14.712Z,81205.94
2023-06-09T05:31:17.569Z,84474.91
2023-06-09T05:32:20.323Z,85831.53
2023-06-09T05:33:23.413Z,85574.92
2023-06-09T05:34:26.470Z,88626.02
2023-06-09T05:35:29.351Z,88307.56
2023-06-09T05:36:32.220Z,88261.06
2023-06-09T05:37:35.001Z,89223.58
2023-06-09T05:38:37.766Z,90571.69
2023-06-09T05:39:40.945Z,89545.14
2023-06-09T05:40:43.725Z,91113.89
2023-06-09T05:41:46.492Z,92227.86
2023-06-09T05:42:49.288Z,89811.11
2023-06-09T05:43:52.134Z,92108.45
2023-06-09T05:44:55.230Z,92093.28
2023-06-09T05:45:58.214Z,92209.65
2023-06-09T05:47:01.179Z,92946.39
2023-06-09T05:48:04.200Z,92666.05
2023-06-09T05:49:07.163Z,92716.65
2023-06-09T05:50:10.503Z,93475.75
2023-06-09T05:51:13.513Z,94849.59
2023-06-09T05:52:16.578Z,95008.56
2023-06-09T05:53:19.550Z,95885.58
2023-06-09T05:54:22.332Z,96922.86
2023-06-09T05:55:25.292Z,96922.86
2023-06-09T05:56:28.076Z,97052.54
2023-06-09T05:57:31.158Z,98090.11
2023-06-09T05:58:34.240Z,98479.27
2023-06-09T05:59:36.995Z,98609.00
2023-06-09T06:00:40.132Z,100295.84
2023-06-09T06:01:43.058Z,98738.73
2023-06-09T06:02:45.950Z,97960.41
2023-06-09T06:03:48.957Z,99127.95
2023-06-09T06:04:51.882Z,99517.22
2023-06-09T06:05:55.190Z,99517.22
2023-06-09T06:06:58.169Z,98609.00
2023-06-09T06:08:01.224Z,99387.46
2023-06-09T06:09:04.303Z,99906.52
2023-06-09T06:10:07.590Z,99776.74
2023-06-09T06:11:11.179Z,100425.63
2023-06-09T06:12:14.265Z,101204.44
2023-06-09T06:13:17.240Z,101074.63
2023-06-09T06:14:20.214Z,102113.23
2023-06-09T06:15:22.993Z,102243.08
2023-06-09T06:16:26.004Z,102113.23
2023-06-09T06:17:28.869Z,102892.36
2023-06-09T06:18:31.616Z,103152.11
2023-06-09T06:19:34.486Z,102502.78
2023-06-09T06:20:37.267Z,103152.11
2023-06-09T06:21:40.366Z,103281.98
2023-06-09T06:22:43.116Z,103281.98
2023-06-09T06:23:45.955Z,103801.54
2023-06-09T06:24:48.764Z,103801.54
2023-06-09T06:25:51.758Z,103671.64
2023-06-09T06:26:54.920Z,104061.34
2023-06-09T06:27:57.704Z,104061.34
2023-06-09T06:29:00.564Z,104580.98
2023-06-09T06:30:03.240Z,104840.84
2023-06-09T06:31:06.231Z,105100.71
2023-06-09T06:32:09.394Z,105230.65
2023-06-09T06:33:12.476Z,106010.38
2023-06-09T06:34:15.443Z,106270.32
2023-06-09T06:35:18.527Z,106660.27
2023-06-09T06:36:21.204Z,106400.30
2023-06-09T06:37:24.286Z,106790.25
2023-06-09T06:38:27.157Z,107310.25
2023-06-09T06:39:30.163Z,107180.25
2023-06-09T06:40:33.000Z,107310.25
2023-06-09T06:41:36.181Z,107570.28
2023-06-09T06:42:39.080Z,107700.30
2023-06-09T06:43:42.039Z,108350.46
2023-06-09T06:44:45.321Z,108480.50
2023-06-09T06:45:48.399Z,108610.55
2023-06-09T06:46:51.097Z,108740.61
2023-06-09T06:47:54.049Z,108740.61
2023-06-09T06:48:56.922Z,109390.93
2023-06-09T06:49:59.698Z,109521.00
2023-06-09T06:51:02.461Z,110041.36
2023-06-09T06:52:05.135Z,110691.89
2023-06-09T06:53:08.209Z,111342.52
2023-06-09T06:54:10.998Z,111732.95
2023-06-09T06:55:13.657Z,111472.66
2023-06-09T06:56:16.644Z,111863.11
2023-06-09T06:57:19.515Z,111602.80
2023-06-09T06:58:22.722Z,111602.80
2023-06-09T06:59:25.772Z,112123.42
2023-06-09T07:00:28.745Z,112513.92
2023-06-09T07:01:31.618Z,112513.92
2023-06-09T07:02:34.748Z,112644.11
2023-06-09T07:03:37.916Z,112644.11
2023-06-09T07:04:40.860Z,112644.11
2023-06-09T07:05:43.850Z,112904.47
2023-06-09T07:06:46.813Z,112904.47
2023-06-09T07:07:49.477Z,112904.47
2023-06-09T07:08:52.359Z,112904.47
2023-06-09T07:09:55.130Z,112904.47
2023-06-09T07:10:58.226Z,113555.46
2023-06-09T07:12:01.222Z,113815.89
2023-06-09T07:13:03.852Z,113685.67
2023-06-09T07:14:06.749Z,114076.33
2023-06-09T07:15:09.513Z,113946.10
2023-06-09T07:16:12.268Z,114206.55
2023-06-09T07:17:15.076Z,114467.02
2023-06-09T07:18:18.309Z,114467.02
2023-06-09T07:19:21.608Z,114467.02
2023-06-09T07:20:24.689Z,114467.02
2023-06-09T07:21:27.799Z,114597.26
2023-06-09T07:22:30.950Z,114467.02
2023-06-09T07:23:34.009Z,114597.26
2023-06-09T07:24:37.111Z,114857.75
2023-06-09T07:25:40.193Z,114727.50
2023-06-09T07:26:43.473Z,114727.50
2023-06-09T07:27:46.657Z,114988.00
2023-06-09T07:28:49.788Z,115118.26
2023-06-09T07:29:52.811Z,114988.00
2023-06-09T07:30:55.897Z,115118.26
2023-06-09T07:31:59.229Z,114857.75
2023-06-09T07:33:02.294Z,114597.26
2023-06-09T07:34:07.436Z,114597.26
2023-06-09T07:35:10.361Z,114727.50
2023-06-09T07:36:16.303Z,114988.00
2023-06-09T07:37:19.084Z,115118.26
2023-06-09T07:38:21.965Z,115248.52
2023-06-09T07:39:25.035Z,115248.52
2023-06-09T07:40:28.505Z,115378.78
2023-06-09T07:41:31.714Z,115248.52
2023-06-09T07:42:34.485Z,115378.78
2023-06-09T07:43:37.250Z,115509.05
2023-06-09T07:44:40.032Z,115509.05
2023-06-09T07:45:43.013Z,115639.32
2023-06-09T07:46:45.996Z,115509.05
2023-06-09T07:47:48.895Z,115769.59
2023-06-09T07:48:51.846Z,115899.87
2023-06-09T07:49:54.924Z,116030.16
2023-06-09T07:51:01.895Z,116030.16
2023-06-09T07:52:07.887Z,116030.16
2023-06-09T07:53:06.507Z,116030.16
2023-06-09T07:54:09.177Z,116030.16
2023-06-09T07:55:15.405Z,116160.45
2023-06-09T07:56:16.356Z,116030.16
2023-06-09T07:57:19.229Z,116030.16
2023-06-09T07:58:22.001Z,116030.16
2023-06-09T07:59:24.879Z,116030.16
2023-06-09T08:00:28.928Z,116160.45
2023-06-09T08:01:31.755Z,116290.75
2023-06-09T08:02:34.551Z,116290.75
2023-06-09T08:03:37.468Z,116421.05
2023-06-09T08:04:40.405Z,116421.05
2023-06-09T08:05:43.154Z,116551.34
2023-06-09T08:06:46.226Z,116290.75
2023-06-09T08:07:48.999Z,116290.75
2023-06-09T08:08:51.776Z,116421.05
2023-06-09T08:09:54.444Z,116551.34
2023-06-09T08:11:00.731Z,116551.34
2023-06-09T08:12:01.520Z,116421.05
2023-06-09T08:13:04.299Z,116421.05
2023-06-09T08:14:07.073Z,116551.34
2023-06-09T08:15:09.745Z,116551.34
2023-06-09T08:16:12.742Z,116551.34
2023-06-09T08:17:16.005Z,116421.05
2023-06-09T08:18:19.104Z,116551.34
2023-06-09T08:19:22.165Z,116681.65
2023-06-09T08:20:25.369Z,116811.96
2023-06-09T08:21:28.729Z,116811.96
2023-06-09T08:22:32.218Z,116811.96
2023-06-09T08:23:35.952Z,116811.96
2023-06-09T08:24:39.820Z,116942.28
2023-06-09T08:25:43.200Z,116942.28
2023-06-09T08:26:46.999Z,116943.30
2023-06-09T08:27:50.699Z,116943.30
2023-06-09T08:28:54.552Z,116943.30
2023-06-09T08:29:58.497Z,116943.30
2023-06-09T08:31:02.662Z,116943.30
2023-06-09T08:32:06.855Z,116943.30
2023-06-09T08:33:11.425Z,116943.30
2023-06-09T08:34:15.947Z,116943.30
2023-06-09T08:35:19.941Z,116943.30
2023-06-09T08:36:24.237Z,116943.30
2023-06-09T08:37:28.551Z,116943.30
2023-06-09T08:38:32.748Z,116943.30
2023-06-09T08:39:37.887Z,116943.30
2023-06-09T08:40:41.972Z,116943.30
2023-06-09T08:41:45.682Z,116943.30
2023-06-09T08:42:49.575Z,116943.30
2023-06-09T08:43:55.144Z,116943.30
2023-06-09T08:45:01.212Z,116943.30
2023-06-09T08:46:04.722Z,116943.30
2023-06-09T08:47:08.981Z,116943.30
2023-06-09T08:48:14.300Z,116943.30
2023-06-09T08:49:18.603Z,116943.30
2023-06-09T08:50:22.909Z,116943.30
2023-06-09T08:51:27.009Z,116943.30
2023-06-09T08:52:31.325Z,116943.30
2023-06-09T08:53:35.510Z,116943.30
2023-06-09T08:54:39.615Z,116943.30
2023-06-09T08:55:44.155Z,116943.30
2023-06-09T08:56:47.632Z,116943.30
2023-06-09T08:57:51.809Z,116943.30
2023-06-09T08:58:55.916Z,116943.30
2023-06-09T08:59:59.931Z,116943.30
2023-06-09T09:01:03.951Z,116943.30
2023-06-09T09:02:08.358Z,116943.30
2023-06-09T09:03:22.686Z,116943.30
2023-06-09T09:04:26.587Z,116943.30
2023-06-09T09:05:30.794Z,116943.30
2023-06-09T09:06:35.197Z,116943.30
2023-06-09T09:07:39.309Z,116943.30
2023-06-09T09:08:43.383Z,116943.30
2023-06-09T09:09:47.674Z,116943.30
2023-06-09T09:10:52.125Z,116943.30
2023-06-09T09:11:55.995Z,116943.30
2023-06-09T09:12:59.957Z,116943.30
2023-06-09T09:14:03.880Z,116943.30
2023-06-09T09:15:07.734Z,116943.30
2023-06-09T09:16:11.556Z,116943.30
2023-06-09T09:17:15.838Z,116943.30
2023-06-09T09:18:20.103Z,116943.30
2023-06-09T09:19:24.460Z,116943.30
2023-06-09T09:20:29.072Z,116943.30
2023-06-09T09:21:33.690Z,116943.30
2023-06-09T09:22:37.746Z,116943.30
2023-06-09T09:23:42.421Z,116943.30
2023-06-09T09:24:47.130Z,116943.30
2023-06-09T09:25:51.436Z,116943.30
2023-06-09T09:26:55.935Z,116943.30
2023-06-09T09:28:02.637Z,116943.30
2023-06-09T09:29:06.835Z,116943.30
2023-06-09T09:30:10.838Z,116943.30
2023-06-09T09:31:15.075Z,116943.30
2023-06-09T09:32:19.648Z,116943.30
2023-06-09T09:33:24.004Z,116943.30
2023-06-09T09:34:27.723Z,116943.30
2023-06-09T09:35:31.835Z,116943.30
2023-06-09T09:36:35.802Z,116943.30
2023-06-09T09:37:39.717Z,116943.30
2023-06-09T09:38:44.001Z,116943.30
2023-06-09T09:39:47.844Z,116943.30
2023-06-09T09:40:52.113Z,116943.30
2023-06-09T09:41:56.143Z,116943.30
2023-06-09T09:43:01.464Z,116943.30
2023-06-09T09:44:05.586Z,116943.30
2023-06-09T09:45:09.791Z,116943.30
2023-06-09T09:46:15.269Z,116943.30
2023-06-09T09:47:19.773Z,116943.30
2023-06-09T09:48:24.030Z,116943.30
2023-06-09T09:49:28.567Z,116943.30
2023-06-09T09:50:32.977Z,116943.30
2023-06-09T09:51:37.286Z,116943.30
2023-06-09T09:52:41.697Z,116943.30
2023-06-09T09:53:45.687Z,116943.30
2023-06-09T09:54:49.793Z,116943.30
2023-06-09T09:55:54.245Z,116943.30
2023-06-09T09:56:58.396Z,116943.30
2023-06-09T09:58:02.618Z,116943.30
2023-06-09T09:59:06.822Z,116943.30
2023-06-09T10:00:11.054Z,116943.30
2023-06-09T10:01:15.075Z,116943.30
2023-06-09T10:02:19.201Z,116943.30
2023-06-09T10:03:24.990Z,116943.30
2023-06-09T10:04:28.900Z,116943.30
2023-06-09T10:05:33.236Z,116943.30
2023-06-09T10:06:37.696Z,116943.30
2023-06-09T10:09:02.496Z,116943.30
2023-06-09T10:10:06.969Z,116943.30
2023-06-09T10:11:11.694Z,116943.30
2023-06-09T10:12:16.438Z,116943.30
2023-06-09T10:13:20.912Z,116943.30
2023-06-09T10:14:24.764Z,116943.30
2023-06-09T10:15:29.017Z,116943.30
2023-06-09T10:16:33.110Z,116943.30
2023-06-09T10:17:37.119Z,116943.30
2023-06-09T10:18:41.366Z,116943.30
2023-06-09T10:19:45.466Z,116943.30
2023-06-09T10:20:49.899Z,116943.30
2023-06-09T10:21:53.959Z,116943.30
2023-06-09T10:22:58.189Z,116943.30
2023-06-09T10:24:02.147Z,116943.30
2023-06-09T10:25:06.730Z,116943.30
2023-06-09T10:26:11.012Z,116943.30
2023-06-09T10:27:15.113Z,116943.30
2023-06-09T10:28:19.070Z,116943.30
2023-06-09T10:29:23.180Z,116943.30
2023-06-09T10:30:27.426Z,116943.30
2023-06-09T10:31:31.835Z,116943.30
2023-06-09T10:32:36.058Z,116943.30
2023-06-09T10:33:40.256Z,116943.30
2023-06-09T10:34:44.223Z,116943.30
2023-06-09T10:35:48.955Z,116943.30
2023-06-09T10:37:03.939Z,116943.30
2023-06-09T10:38:08.240Z,116943.30
2023-06-09T10:39:12.545Z,116943.30
2023-06-09T10:40:17.811Z,116943.30
2023-06-09T10:41:23.486Z,116943.30
2023-06-09T10:42:27.936Z,116943.30
2023-06-09T10:43:32.023Z,116943.30
2023-06-09T10:44:37.381Z,116943.30
2023-06-09T10:45:57.679Z,116943.30
2023-06-09T10:47:01.964Z,116943.30
2023-06-09T10:48:06.428Z,116943.30
2023-06-09T10:49:11.221Z,116943.30
2023-06-09T10:50:15.494Z,116943.30
2023-06-09T10:51:29.315Z,116943.30
2023-06-09T10:52:33.646Z,116943.30
2023-06-09T10:53:37.534Z,116943.30
2023-06-09T10:54:41.544Z,116943.30
2023-06-09T10:55:45.556Z,116943.30
2023-06-09T10:56:49.956Z,116943.30
2023-06-09T10:57:53.363Z,116943.30
2023-06-09T10:58:57.527Z,116943.30
2023-06-09T11:00:00.853Z,116943.30
2023-06-09T11:01:04.946Z,116943.30
2023-06-09T11:02:09.635Z,116943.30
2023-06-09T11:03:13.993Z,116943.30
2023-06-09T11:04:18.780Z,116943.30
2023-06-09T11:05:23.058Z,116943.30
2023-06-09T11:06:27.399Z,116943.30
2023-06-09T11:07:31.854Z,116943.30
2023-06-09T11:08:37.144Z,116943.30
2023-06-09T11:09:41.673Z,116943.30
2023-06-09T11:10:45.919Z,116943.30
2023-06-09T11:11:50.410Z,116943.30
2023-06-09T11:12:54.242Z,116943.30
2023-06-09T11:13:58.392Z,116943.30
2023-06-09T11:15:02.375Z,116943.30
2023-06-09T11:16:08.716Z,116943.30
2023-06-09T11:17:12.549Z,116943.30
2023-06-09T11:18:17.177Z,116943.30
2023-06-09T11:19:24.806Z,116943.30
2023-06-09T11:20:28.216Z,116943.30
2023-06-09T11:21:32.516Z,116943.30
2023-06-09T11:22:36.625Z,116943.30
2023-06-09T11:23:40.776Z,116943.30
2023-06-09T11:24:44.830Z,116943.30
2023-06-09T11:27:09.525Z,116943.30
2023-06-09T11:28:17.421Z,116943.30
2023-06-09T11:29:21.925Z,116943.30
2023-06-09T11:30:26.524Z,116943.30
2023-06-09T11:31:31.044Z,116943.30
2023-06-09T11:32:38.697Z,116943.30
2023-06-09T11:33:44.794Z,116943.30
2023-06-09T11:34:48.752Z,116943.30
2023-06-09T11:35:52.899Z,116943.30
2023-06-09T11:36:57.243Z,116943.30
2023-06-09T11:38:01.715Z,116943.30
2023-06-09T11:39:05.973Z,116943.30
2023-06-09T11:40:10.022Z,116943.30
2023-06-09T11:41:17.533Z,116943.30
2023-06-09T11:42:21.717Z,116943.30
2023-06-09T11:43:26.043Z,116943.30
2023-06-09T11:44:30.028Z,116943.30
2023-06-09T11:45:34.096Z,116943.30
2023-06-09T11:46:38.859Z,116943.30
2023-06-09T11:47:43.119Z,116943.30
2023-06-09T11:48:47.573Z,116943.30
2023-06-09T11:49:51.735Z,116943.30
2023-06-09T11:50:55.682Z,116943.30
2023-06-09T11:51:59.874Z,116943.30
2023-06-09T11:53:04.392Z,116943.30
2023-06-09T11:54:09.037Z,116943.30
2023-06-09T11:55:13.923Z,116943.30
2023-06-09T11:56:18.336Z,116943.30
2023-06-09T11:57:23.052Z,116943.30
2023-06-09T11:58:27.776Z,116943.30
2023-06-09T12:00:37.121Z,116943.30
2023-06-09T12:01:41.314Z,116943.30
2023-06-09T12:02:45.690Z,116943.30
2023-06-09T12:03:49.912Z,116943.30
2023-06-09T12:04:54.465Z,116943.30
2023-06-09T12:06:08.784Z,116943.30
2023-06-09T12:07:13.096Z,116943.30
2023-06-09T12:08:17.104Z,116943.30
2023-06-09T12:09:22.241Z,116943.30
2023-06-09T12:10:31.442Z,116943.30
2023-06-09T12:11:35.340Z,116943.30
2023-06-09T12:12:39.153Z,116943.30